Time;durP1;ratioP1;P1;durP2;ratioP2;P2;SDS_P1;SDS_P2;PMS_P1;PMS_P2;Temp;Humidity;BMP_temperature;BMP_pressure;BME280_temperature;BME280_humidity;BME280_pressure;Samples;Min_cycle;Max_cycle;Signal;HPM_P1;HPM_P2
2022/11/19 00:00:46;;;;;;;20.77;14.65;;;;;;;13.59;100.00;99336.63;5092747;28;20080;-70
2022/11/19 00:03:16;;;;;;;23.23;16.17;;;;;;;13.56;100.00;99349.59;5092334;28;20036;-70
2022/11/19 00:05:44;;;;;;;27.55;15.98;;;;;;;13.46;100.00;99346.06;5091749;28;20024;-70
2022/11/19 00:08:14;;;;;;;22.70;16.13;;;;;;;13.20;100.00;99335.47;5093103;28;20055;-70
2022/11/19 00:10:40;;;;;;;22.77;16.80;;;;;;;13.19;100.00;99354.47;5092766;28;20035;-70
2022/11/19 00:13:06;;;;;;;23.35;16.42;;;;;;;13.14;100.00;99369.13;5092456;28;20024;-70
2022/11/19 00:15:34;;;;;;;23.83;17.00;;;;;;;12.88;100.00;99351.59;5092204;28;20603;-70
2022/11/19 00:17:59;;;;;;;27.05;17.25;;;;;;;13.04;100.00;99379.38;5092430;28;20421;-70
2022/11/19 00:20:26;;;;;;;27.17;19.08;;;;;;;12.63;100.00;99382.41;5092680;28;20035;-70
2022/11/19 00:22:53;;;;;;;29.33;19.00;;;;;;;12.60;100.00;99392.75;5092543;28;20044;-70
2022/11/19 00:25:23;;;;;;;29.73;20.55;;;;;;;12.34;100.00;99398.47;5092193;28;20486;-70
2022/11/19 00:27:49;;;;;;;29.35;20.27;;;;;;;12.13;100.00;99402.53;5092290;28;20077;-71
2022/11/19 00:30:15;;;;;;;33.42;21.33;;;;;;;12.09;100.00;99386.97;5092350;28;20511;-70
2022/11/19 00:32:41;;;;;;;31.67;21.30;;;;;;;12.17;100.00;99392.22;5092314;28;20027;-71
2022/11/19 00:35:07;;;;;;;30.27;20.70;;;;;;;12.17;100.00;99403.44;5091981;28;20420;-71
2022/11/19 00:37:33;;;;;;;31.95;22.27;;;;;;;12.13;100.00;99397.34;5092070;28;20028;-71
2022/11/19 00:39:58;;;;;;;33.15;21.90;;;;;;;11.90;100.00;99354.75;5092406;28;20028;-71
2022/11/19 00:42:23;;;;;;;31.85;22.77;;;;;;;12.09;100.00;99394.72;5092195;28;20547;-70
2022/11/19 00:44:49;;;;;;;34.75;23.42;;;;;;;11.96;100.00;99401.41;5092305;28;20020;-70
2022/11/19 00:47:15;;;;;;;30.83;22.17;;;;;;;11.94;100.00;99410.88;5091992;28;20028;-70
2022/11/19 00:49:41;;;;;;;35.17;22.77;;;;;;;11.99;100.00;99409.25;5091865;28;20032;-71
2022/11/19 00:52:06;;;;;;;30.00;22.00;;;;;;;11.93;100.00;99416.88;5091885;28;20035;-70
2022/11/19 00:54:32;;;;;;;31.58;22.42;;;;;;;11.89;100.00;99413.38;5092283;28;20028;-70
2022/11/19 00:56:57;;;;;;;30.38;22.83;;;;;;;12.01;100.00;99407.53;5091725;28;20486;-70
2022/11/19 00:59:23;;;;;;;33.45;22.45;;;;;;;12.06;100.00;99405.91;5091810;28;20499;-70
2022/11/19 01:01:49;;;;;;;33.03;24.48;;;;;;;12.03;100.00;99398.06;5091970;28;20024;-70
2022/11/19 01:04:15;;;;;;;31.40;22.77;;;;;;;12.08;100.00;99400.75;5092167;28;20056;-70
2022/11/19 01:06:41;;;;;;;36.97;25.50;;;;;;;11.96;100.00;99404.00;5091725;28;20055;-70
2022/11/19 01:09:06;;;;;;;32.67;22.63;;;;;;;11.90;100.00;99409.94;5091293;28;20443;-70
2022/11/19 01:11:33;;;;;;;33.38;23.85;;;;;;;11.86;100.00;99420.22;5089727;28;20026;-70
2022/11/19 01:14:00;;;;;;;32.40;22.92;;;;;;;11.82;100.00;99430.53;5091321;28;20401;-70
2022/11/19 01:16:29;;;;;;;35.70;23.90;;;;;;;11.71;100.00;99432.06;5091426;28;20028;-70
2022/11/19 01:18:54;;;;;;;31.80;22.80;;;;;;;11.63;100.00;99431.09;5091082;28;20020;-69
2022/11/19 01:21:23;;;;;;;35.50;23.27;;;;;;;11.43;100.00;99444.53;5091389;28;20059;-69
2022/11/19 01:23:48;;;;;;;42.17;25.30;;;;;;;11.21;100.00;99443.28;5091228;28;20109;-70
2022/11/19 01:26:15;;;;;;;36.63;26.00;;;;;;;11.25;100.00;99462.31;5091342;28;20114;-70
2022/11/19 01:28:41;;;;;;;34.75;25.00;;;;;;;11.21;100.00;99463.09;5091437;28;20035;-69
2022/11/19 01:31:09;;;;;;;34.28;24.60;;;;;;;11.26;100.00;99466.63;5091724;28;20054;-69
2022/11/19 01:33:36;;;;;;;38.67;24.65;;;;;;;11.10;100.00;99427.63;5091481;28;20034;-70
2022/11/19 01:36:05;;;;;;;38.58;24.83;;;;;;;11.41;100.00;99456.56;5091344;28;20482;-70
2022/11/19 01:38:30;;;;;;;33.07;23.57;;;;;;;11.36;100.00;99442.69;5091118;28;20024;-70
2022/11/19 01:40:57;;;;;;;35.33;23.88;;;;;;;11.45;100.00;99460.06;5091001;28;20039;-70
2022/11/19 01:43:47;;;;;;;31.88;22.77;;;;;;;11.43;100.00;99464.38;5090813;28;20647;-70
2022/11/19 01:46:24;;;;;;;33.55;23.20;;;;;;;11.24;100.00;99471.78;5090851;28;20398;-70
2022/11/19 01:48:56;;;;;;;31.77;22.85;;;;;;;11.15;100.00;99481.94;5090666;28;20093;-69
2022/11/19 01:51:27;;;;;;;32.53;22.48;;;;;;;11.02;100.00;99477.41;5091224;28;20486;-69
2022/11/19 01:53:58;;;;;;;32.20;22.13;;;;;;;10.90;100.00;99483.19;5091191;28;20043;-69
2022/11/19 01:56:24;;;;;;;34.85;25.52;;;;;;;10.74;100.00;99462.25;5091190;28;20035;-69
2022/11/19 01:58:55;;;;;;;30.58;22.25;;;;;;;10.82;100.00;99488.19;5090766;28;20031;-69
2022/11/19 02:01:21;;;;;;;33.30;23.35;;;;;;;10.85;100.00;99485.66;5090552;28;20085;-70
2022/11/19 02:03:48;;;;;;;30.95;22.20;;;;;;;10.91;100.00;99492.69;5090517;28;20066;-70
2022/11/19 02:06:13;;;;;;;31.48;23.58;;;;;;;11.02;100.00;99496.34;5090821;28;20436;-70
2022/11/19 02:08:44;;;;;;;30.40;22.40;;;;;;;11.00;100.00;99500.59;5090803;28;20111;-70
2022/11/19 02:11:25;;;;;;;30.65;21.92;;;;;;;11.14;100.00;99509.50;5090956;28;20024;-70
2022/11/19 02:14:08;;;;;;;27.92;21.67;;;;;;;11.26;100.00;99495.06;5090667;28;20067;-70
2022/11/19 02:16:49;;;;;;;31.38;21.88;;;;;;;11.30;100.00;99487.41;5090442;28;20020;-70
2022/11/19 02:19:48;;;;;;;36.13;24.55;;;;;;;11.29;100.00;99489.94;5090620;28;20032;-70
2022/11/19 02:22:37;;;;;;;34.97;23.27;;;;;;;11.37;100.00;99503.88;5089944;28;20051;-70
2022/11/19 02:25:40;;;;;;;31.88;22.67;;;;;;;11.38;100.00;99513.38;5089326;28;20032;-70
2022/11/19 02:28:33;;;;;;;30.67;22.10;;;;;;;11.21;100.00;99481.19;5090925;28;20016;-70
2022/11/19 02:31:15;;;;;;;33.72;22.67;;;;;;;11.07;100.00;99471.47;5094252;28;20020;-70
2022/11/19 02:33:57;;;;;;;28.30;21.02;;;;;;;11.24;100.00;99526.03;5094704;28;20032;-70
2022/11/19 02:36:35;;;;;;;31.17;21.08;;;;;;;11.05;100.00;99508.44;5094824;28;20020;-70
2022/11/19 02:39:12;;;;;;;29.37;21.23;;;;;;;11.18;100.00;99544.00;5094941;28;20485;-70
2022/11/19 02:41:45;;;;;;;29.05;20.92;;;;;;;11.09;100.00;99512.81;5077246;28;20028;-70
2022/11/19 02:47:17;;;;;;;32.83;22.30;;;;;;;11.46;100.00;99562.63;5094197;28;20035;-70
2022/11/19 02:49:44;;;;;;;32.83;24.13;;;;;;;11.52;100.00;99567.03;5094473;28;20035;-70
2022/11/19 02:52:12;;;;;;;30.42;22.30;;;;;;;11.52;100.00;99572.22;5094452;28;20036;-70
2022/11/19 02:54:38;;;;;;;30.40;21.40;;;;;;;11.06;100.00;99562.69;5094607;28;20028;-70
2022/11/19 02:57:03;;;;;;;31.70;21.10;;;;;;;10.64;100.00;99553.22;5094083;28;20072;-69
2022/11/19 03:05:19;;;;;;;33.25;22.45;;;;;;;10.03;100.00;99621.44;5093860;28;20046;-69
2022/11/19 03:07:45;;;;;;;38.30;23.52;;;;;;;9.76;100.00;99606.13;5094209;28;20028;-69
2022/11/19 03:10:13;;;;;;;38.55;23.45;;;;;;;9.77;100.00;99648.22;5093942;28;20036;-69
2022/11/19 03:12:38;;;;;;;42.58;25.88;;;;;;;9.84;100.00;99665.63;5093761;28;20056;-69
2022/11/19 03:18:49;;;;;;;61.95;25.90;;;;;;;9.80;100.00;99669.81;5093673;28;20035;-69
2022/11/19 03:21:50;;;;;;;46.88;24.85;;;;;;;9.72;100.00;99619.78;5093880;28;20054;-69
2022/11/19 03:24:29;;;;;;;52.55;26.83;;;;;;;10.09;100.00;99653.38;5094180;28;20030;-70
2022/11/19 03:27:14;;;;;;;53.60;27.40;;;;;;;10.09;100.00;99654.22;5094118;28;20020;-69
2022/11/19 03:29:46;;;;;;;55.42;28.33;;;;;;;10.03;100.00;99652.38;5093286;28;20077;-70
2022/11/19 03:32:27;;;;;;;54.45;27.30;;;;;;;9.98;100.00;99674.59;5093939;28;20082;-69
2022/11/19 03:35:00;;;;;;;57.55;28.13;;;;;;;9.97;100.00;99679.69;5093840;28;20031;-69
2022/11/19 03:37:30;;;;;;;52.72;28.48;;;;;;;9.93;100.00;99694.25;5093444;28;20031;-70
2022/11/19 03:39:59;;;;;;;53.65;26.55;;;;;;;9.91;100.00;99703.63;5093287;28;20075;-69
2022/11/19 03:42:25;;;;;;;55.22;28.65;;;;;;;9.99;100.00;99711.56;5093546;28;20485;-69
2022/11/19 03:44:58;;;;;;;60.35;30.55;;;;;;;10.07;100.00;99712.66;5093732;28;20032;-69
2022/11/19 03:47:29;;;;;;;59.80;30.80;;;;;;;10.15;100.00;99705.13;5093592;28;20059;-70
2022/11/19 03:50:03;;;;;;;61.38;30.25;;;;;;;10.01;100.00;99681.53;5093559;28;20314;-70
2022/11/19 03:52:29;;;;;;;63.17;31.65;;;;;;;10.23;100.00;99711.34;5093258;28;20035;-69
2022/11/19 03:54:54;;;;;;;71.28;33.53;;;;;;;10.11;100.00;99673.22;5057367;28;20105;-69
2022/11/19 03:57:23;;;;;;;68.82;33.40;;;;;;;10.41;100.00;99715.28;5093275;28;20051;-69
2022/11/19 03:59:49;;;;;;;80.13;34.50;;;;;;;10.38;100.00;99708.34;5093245;28;20039;-70
2022/11/19 04:02:15;;;;;;;66.82;34.03;;;;;;;10.42;100.00;99691.19;5093019;28;20032;-70
2022/11/19 04:04:40;;;;;;;61.92;30.30;;;;;;;10.32;100.00;99677.19;5093228;28;20032;-70
2022/11/19 04:07:19;;;;;;;57.40;30.10;;;;;;;10.38;100.00;99710.03;5093170;28;20156;-69
2022/11/19 04:09:44;;;;;;;59.55;30.65;;;;;;;10.43;100.00;99719.63;5092862;28;20085;-69
2022/11/19 04:12:21;;;;;;;60.70;28.20;;;;;;;10.25;100.00;99734.59;5092606;28;20036;-70
2022/11/19 04:14:47;;;;;;;60.78;30.48;;;;;;;9.79;100.00;99696.41;5093093;28;20063;-69
2022/11/19 04:17:14;;;;;;;68.57;31.10;;;;;;;10.09;100.00;99743.63;5088779;28;20151;-71
2022/11/19 04:19:39;;;;;;;71.90;32.22;;;;;;;10.04;100.00;99741.81;5106907;28;20043;-70
2022/11/19 04:22:24;;;;;;;72.95;32.60;;;;;;;10.13;100.00;99745.47;5095904;28;20379;-70
2022/11/19 04:24:50;;;;;;;70.00;32.15;;;;;;;9.98;100.00;99710.72;5049638;28;20048;-69
2022/11/19 04:27:15;;;;;;;82.68;32.72;;;;;;;9.94;100.00;99723.47;5049545;28;20041;-69
2022/11/19 04:29:41;;;;;;;83.47;34.67;;;;;;;10.08;100.00;99729.88;5049785;28;20037;-70
2022/11/19 04:32:06;;;;;;;89.13;36.28;;;;;;;10.15;100.00;99713.72;5049564;28;20091;-70
2022/11/19 04:34:32;;;;;;;80.85;34.55;;;;;;;10.27;100.00;99757.03;5049686;28;20041;-70
2022/11/19 04:36:57;;;;;;;80.10;35.58;;;;;;;10.27;100.00;99781.94;5049261;28;20025;-70
2022/11/19 04:39:23;;;;;;;84.10;35.63;;;;;;;10.32;100.00;99791.56;5049395;28;20033;-69
2022/11/19 04:41:48;;;;;;;79.70;35.28;;;;;;;10.41;100.00;99792.69;5049298;28;20091;-70
2022/11/19 04:44:13;;;;;;;89.93;35.35;;;;;;;10.46;100.00;99793.69;5049490;28;20037;-70
2022/11/19 04:46:39;;;;;;;88.40;36.83;;;;;;;10.33;100.00;99777.84;5049419;28;20033;-70
2022/11/19 04:49:04;;;;;;;92.65;38.45;;;;;;;10.54;100.00;99793.88;5049483;28;20021;-70
2022/11/19 04:51:30;;;;;;;98.63;38.70;;;;;;;10.41;100.00;99757.44;5049186;28;20091;-70
2022/11/19 04:53:55;;;;;;;95.63;39.55;;;;;;;10.59;100.00;99776.78;5048774;28;20473;-70
2022/11/19 04:56:21;;;;;;;94.55;39.13;;;;;;;10.63;100.00;99773.44;5079528;28;20040;-70
2022/11/19 04:58:46;;;;;;;99.82;40.08;;;;;;;10.68;100.00;99777.06;5091699;28;20046;-70
2022/11/19 05:01:12;;;;;;;92.28;38.10;;;;;;;10.77;100.00;99791.91;5091640;28;20081;-70
2022/11/19 05:03:57;;;;;;;94.18;38.80;;;;;;;10.81;100.00;99806.63;5028780;28;20064;-70
2022/11/19 05:06:23;;;;;;;101.20;38.83;;;;;;;10.66;100.00;99776.13;5028826;28;20468;-70
2022/11/19 05:08:48;;;;;;;96.72;37.90;;;;;;;10.75;100.00;99807.31;5029128;28;20072;-70
2022/11/19 05:11:13;;;;;;;94.22;38.83;;;;;;;10.55;100.00;99785.31;5029025;28;20029;-70
2022/11/19 05:13:39;;;;;;;95.80;37.90;;;;;;;10.73;100.00;99819.34;5029005;28;20098;-69
2022/11/19 05:16:05;;;;;;;95.70;38.95;;;;;;;10.74;100.00;99826.25;5028676;28;20064;-70
2022/11/19 05:18:30;;;;;;;101.90;40.67;;;;;;;10.75;100.00;99820.22;5028622;28;20041;-70
2022/11/19 05:20:56;;;;;;;100.75;40.90;;;;;;;10.78;100.00;99815.16;5028654;28;20061;-70
2022/11/19 05:23:23;;;;;;;93.93;39.38;;;;;;;10.84;100.00;99794.66;5028732;28;20030;-69
2022/11/19 05:25:48;;;;;;;97.50;37.42;;;;;;;10.80;100.00;99802.28;5028806;28;20041;-71
2022/11/19 05:28:13;;;;;;;99.70;39.65;;;;;;;10.73;100.00;99827.09;5028659;28;20458;-72
2022/11/19 05:30:39;;;;;;;105.95;40.00;;;;;;;10.83;100.00;99843.69;5028694;28;20041;-73
2022/11/19 05:33:04;;;;;;;103.88;38.80;;;;;;;10.89;100.00;99836.09;5028583;28;20021;-73
2022/11/19 05:35:30;;;;;;;88.40;37.70;;;;;;;10.98;100.00;99850.97;5073253;28;20052;-73
2022/11/19 05:37:55;;;;;;;89.20;37.50;;;;;;;11.06;100.00;99859.75;5091092;28;20026;-76
2022/11/19 05:40:21;;;;;;;86.25;37.17;;;;;;;10.82;100.00;99826.44;5090882;28;20379;-74
2022/11/19 05:42:46;;;;;;;92.15;35.88;;;;;;;10.73;100.00;99833.94;5091162;28;20024;-74
2022/11/19 05:45:12;;;;;;;90.75;35.83;;;;;;;10.82;100.00;99872.94;5091041;28;20047;-75
2022/11/19 05:47:38;;;;;;;91.78;38.35;;;;;;;10.52;100.00;99846.31;5091230;28;20495;-74
2022/11/19 05:50:04;;;;;;;101.80;41.35;;;;;;;10.74;100.00;99882.16;5091052;28;20030;-75
2022/11/19 05:52:29;;;;;;;109.30;42.95;;;;;;;10.76;100.00;99888.25;5090909;28;20070;-73
2022/11/19 05:54:55;;;;;;;118.35;42.45;;;;;;;10.71;100.00;99875.22;5089694;28;20511;-78
2022/11/19 05:57:20;;;;;;;106.80;38.50;;;;;;;10.48;100.00;99834.19;5072936;28;20032;-81
2022/11/19 05:59:45;;;;;;;117.65;43.30;;;;;;;10.70;100.00;99870.03;5090897;28;20032;-76
2022/11/19 06:02:11;;;;;;;136.57;42.72;;;;;;;10.74;100.00;99880.47;5072621;28;20034;-81
2022/11/19 06:04:36;;;;;;;127.10;43.33;;;;;;;10.83;100.00;99882.44;5090897;28;20040;-77
2022/11/19 06:07:03;;;;;;;119.03;42.28;;;;;;;10.81;100.00;99892.69;5090818;28;20106;-77
2022/11/19 06:09:28;;;;;;;132.73;43.03;;;;;;;10.77;100.00;99872.78;5090794;28;20028;-82
2022/11/19 06:11:54;;;;;;;120.43;45.22;;;;;;;10.89;100.00;99903.25;5090564;28;20026;-74
2022/11/19 06:14:24;;;;;;;137.00;47.72;;;;;;;10.84;100.00;99902.22;5090348;28;20046;-80
2022/11/19 06:16:51;;;;;;;131.90;44.97;;;;;;;10.77;100.00;99885.69;5090741;28;20487;-78
2022/11/19 06:19:20;;;;;;;136.13;45.78;;;;;;;10.71;100.00;99903.63;5086570;28;20123;-79
2022/11/19 06:21:46;;;;;;;137.63;45.28;;;;;;;10.75;100.00;99922.66;5090296;28;20127;-78
2022/11/19 06:24:12;;;;;;;125.28;46.15;;;;;;;10.58;100.00;99906.69;5094601;28;20104;-70
2022/11/19 06:26:38;;;;;;;124.80;45.53;;;;;;;10.72;100.00;99932.91;5072224;28;20111;-69
2022/11/19 06:29:04;;;;;;;127.60;43.90;;;;;;;10.76;100.00;99951.09;5082147;28;20016;-71
2022/11/19 06:31:29;;;;;;;112.88;41.95;;;;;;;10.77;100.00;99946.81;5070712;28;20048;-71
2022/11/19 06:33:55;;;;;;;125.78;44.85;;;;;;;10.77;100.00;99952.84;5088291;28;20028;-74
2022/11/19 06:36:21;;;;;;;126.25;44.10;;;;;;;10.79;100.00;99961.50;5081239;28;20020;-72
2022/11/19 06:38:47;;;;;;;127.07;45.70;;;;;;;10.72;100.00;99957.00;5071946;28;20017;-70
2022/11/19 06:41:12;;;;;;;136.32;50.85;;;;;;;10.73;100.00;99924.31;5085190;28;20028;-70
2022/11/19 06:43:38;;;;;;;128.68;48.30;;;;;;;10.88;100.00;99937.66;5088046;28;20456;-70
2022/11/19 06:46:03;;;;;;;141.40;52.03;;;;;;;10.93;100.00;99938.63;5087340;28;20385;-70
2022/11/19 06:48:29;;;;;;;130.25;52.15;;;;;;;10.87;100.00;99922.97;5100673;28;20079;-72
2022/11/19 06:50:55;;;;;;;110.93;45.85;;;;;;;10.94;100.00;99940.41;5073604;28;20017;-78
2022/11/19 06:53:20;;;;;;;102.60;42.00;;;;;;;10.97;100.00;99960.25;5080719;28;20028;-71
2022/11/19 06:55:45;;;;;;;93.75;41.35;;;;;;;11.00;100.00;99960.31;5083283;28;20107;-74
2022/11/19 06:58:13;;;;;;;99.88;43.05;;;;;;;11.06;100.00;99959.63;5085203;28;20032;-72
2022/11/19 07:00:39;;;;;;;94.20;43.72;;;;;;;11.13;100.00;99972.75;5089225;28;20124;-74
2022/11/19 07:03:04;;;;;;;83.97;38.90;;;;;;;11.21;100.00;99975.53;5089130;28;20082;-70
2022/11/19 07:05:29;;;;;;;77.18;37.58;;;;;;;11.26;100.00;99973.06;5073300;28;20079;-71
2022/11/19 07:07:55;;;;;;;71.15;36.22;;;;;;;11.23;100.00;99973.00;5070240;28;20044;-71
2022/11/19 07:10:20;;;;;;;69.90;34.78;;;;;;;11.31;100.00;99987.88;5092064;28;20078;-70
2022/11/19 07:12:46;;;;;;;66.82;35.17;;;;;;;11.35;100.00;99977.59;5074040;28;20049;-73
2022/11/19 07:15:11;;;;;;;72.90;36.88;;;;;;;11.37;100.00;99971.63;5081039;28;20035;-70
2022/11/19 07:17:37;;;;;;;65.97;34.17;;;;;;;11.30;100.00;99957.69;5072821;28;20542;-71
2022/11/19 07:20:04;;;;;;;65.00;34.65;;;;;;;11.57;100.00;99991.97;5072944;28;20082;-71
2022/11/19 07:22:29;;;;;;;66.90;33.45;;;;;;;11.57;100.00;99974.72;5069653;28;20059;-71
2022/11/19 07:24:55;;;;;;;64.70;34.05;;;;;;;11.73;100.00;99983.72;5093857;28;20504;-71
2022/11/19 07:27:21;;;;;;;63.05;35.08;;;;;;;11.79;100.00;99977.84;5096001;28;20036;-71
2022/11/19 07:29:46;;;;;;;63.58;35.40;;;;;;;11.86;100.00;99974.53;5075886;28;20502;-76
2022/11/19 07:32:12;;;;;;;60.25;33.83;;;;;;;11.93;100.00;99983.34;5073073;28;20029;-71
2022/11/19 07:34:37;;;;;;;59.20;34.25;;;;;;;11.98;100.00;99995.56;5072583;28;20078;-73
2022/11/19 07:37:03;;;;;;;62.80;35.05;;;;;;;11.84;100.00;99988.28;5072686;28;20642;-72
2022/11/19 07:39:28;;;;;;;70.28;35.95;;;;;;;12.01;100.00;99991.31;5066503;28;20035;-71
2022/11/19 07:44:37;;;;;;;67.72;36.80;;;;;;;12.12;100.00;100001.09;5073190;28;20058;-70
2022/11/19 07:47:05;;;;;;;72.03;37.83;;;;;;;12.18;100.00;100004.66;5091049;28;20023;-70
2022/11/19 07:49:31;;;;;;;73.57;36.22;;;;;;;12.26;100.00;100013.44;5087384;28;20067;-69
2022/11/19 07:51:56;;;;;;;68.60;36.42;;;;;;;12.33;100.00;100022.25;5084387;28;20776;-69
2022/11/19 07:54:22;;;;;;;77.25;40.60;;;;;;;12.30;100.00;100012.69;5087314;28;20478;-69
2022/11/19 07:56:48;;;;;;;76.75;45.53;;;;;;;12.44;100.00;100026.81;5084601;28;20020;-69
2022/11/19 07:59:13;;;;;;;107.38;66.32;;;;;;;12.51;100.00;100045.97;5086977;28;20025;-69
2022/11/19 08:01:39;;;;;;;130.52;90.00;;;;;;;12.52;100.00;100037.31;5081206;28;20030;-68
2022/11/19 08:04:04;;;;;;;131.65;86.75;;;;;;;12.60;100.00;100047.88;5083029;28;20024;-69
2022/11/19 08:06:32;;;;;;;110.47;71.18;;;;;;;12.65;100.00;100048.84;5081276;28;20039;-70
2022/11/19 08:08:57;;;;;;;119.10;80.35;;;;;;;12.66;100.00;100027.28;5083091;28;20073;-69
2022/11/19 08:11:23;;;;;;;131.02;91.40;;;;;;;12.72;100.00;100027.41;5072809;28;20044;-70
2022/11/19 08:13:48;;;;;;;145.80;103.88;;;;;;;12.90;100.00;100028.63;5087198;28;20489;-69
2022/11/19 08:19:13;;;;;;;75.43;47.00;;;;;;;13.02;100.00;100048.72;5007927;28;20168;-70
2022/11/19 08:21:41;;;;;;;59.33;34.78;;;;;;;13.03;100.00;100066.88;5009489;28;20053;-70
2022/11/19 08:24:07;;;;;;;56.65;30.33;;;;;;;12.92;100.00;100051.16;5007388;28;20124;-70
2022/11/19 08:26:33;;;;;;;59.63;33.85;;;;;;;12.75;100.00;100029.19;5008752;28;20034;-70
2022/11/19 08:28:58;;;;;;;65.05;38.15;;;;;;;12.97;100.00;100065.91;5009356;28;20125;-69
2022/11/19 08:31:24;;;;;;;89.18;47.45;;;;;;;13.01;100.00;100068.59;5009397;28;20034;-70
2022/11/19 08:33:49;;;;;;;86.65;44.45;;;;;;;12.93;100.00;100070.13;5008566;28;20041;-69
2022/11/19 08:36:15;;;;;;;83.95;45.13;;;;;;;12.77;100.00;100068.94;5009360;28;20048;-70
2022/11/19 08:38:40;;;;;;;77.63;40.63;;;;;;;12.68;100.00;100061.84;5008894;28;20121;-70
2022/11/19 08:43:51;;;;;;;81.38;42.88;;;;;;;12.74;100.00;100046.44;5009292;28;20510;-70
2022/11/19 08:46:16;;;;;;;107.35;39.88;;;;;;;13.00;100.00;100066.84;5009335;28;20025;-70
2022/11/19 08:48:42;;;;;;;107.40;42.20;;;;;;;13.05;100.00;100054.84;5008098;28;20104;-71
2022/11/19 08:51:09;;;;;;;116.82;41.15;;;;;;;13.17;100.00;100066.28;5009720;28;20121;-71
2022/11/19 08:53:35;;;;;;;113.70;39.50;;;;;;;13.28;100.00;100069.97;5001100;28;20119;-70
2022/11/19 08:56:00;;;;;;;115.82;42.63;;;;;;;13.33;100.00;100068.34;5050997;28;20068;-69
2022/11/19 08:58:27;;;;;;;94.70;40.28;;;;;;;13.21;100.00;100024.06;5070854;28;20049;-69
2022/11/19 09:00:53;;;;;;;98.35;40.53;;;;;;;13.47;100.00;100059.97;5071433;28;20096;-69
2022/11/19 09:03:19;;;;;;;100.78;38.10;;;;;;;13.50;100.00;100067.84;5070878;28;20028;-70
2022/11/19 09:05:44;;;;;;;90.00;37.05;;;;;;;13.54;100.00;100070.50;5071039;28;20097;-69
2022/11/19 09:08:09;;;;;;;82.20;36.65;;;;;;;13.61;100.00;100065.41;5071095;28;20521;-69
2022/11/19 09:10:36;;;;;;;105.43;46.25;;;;;;;13.66;100.00;100067.25;5071168;28;20032;-70
2022/11/19 09:13:02;;;;;;;81.75;38.38;;;;;;;13.79;100.00;100065.75;5071026;28;20058;-70
2022/11/19 09:15:28;;;;;;;80.88;35.35;;;;;;;13.82;100.00;100064.91;5071523;28;20103;-69
2022/11/19 09:17:53;;;;;;;74.55;33.83;;;;;;;13.91;100.00;100073.75;5070874;28;20071;-70
2022/11/19 09:20:19;;;;;;;57.58;31.65;;;;;;;13.99;100.00;100076.47;5071473;28;20470;-69
2022/11/19 09:22:44;;;;;;;62.20;31.55;;;;;;;13.99;100.00;100068.66;5082641;28;20046;-70
2022/11/19 09:25:10;;;;;;;54.15;30.45;;;;;;;14.08;100.00;100071.44;5088072;28;20036;-71
2022/11/19 09:27:36;;;;;;;54.28;30.20;;;;;;;14.11;100.00;100068.00;5091234;28;20114;-70
2022/11/19 09:30:03;;;;;;;53.03;30.13;;;;;;;14.06;100.00;100054.94;5088994;28;20451;-69
2022/11/19 09:32:28;;;;;;;48.47;29.52;;;;;;;14.08;100.00;100062.75;5085419;28;20032;-71
2022/11/19 09:34:54;;;;;;;54.25;28.90;;;;;;;14.12;100.00;100063.69;5076842;28;20025;-71
2022/11/19 09:37:19;;;;;;;56.80;30.77;;;;;;;14.09;100.00;100067.09;5070768;28;20021;-72
2022/11/19 09:39:45;;;;;;;47.13;28.83;;;;;;;14.14;100.00;100052.47;5075836;28;20028;-69
2022/11/19 09:42:13;;;;;;;47.67;29.20;;;;;;;14.12;100.00;100058.50;5078213;28;20040;-70
2022/11/19 09:44:57;;;;;;;55.58;31.08;;;;;;;14.17;100.00;100067.25;5070131;28;20040;-69
2022/11/19 09:47:41;;;;;;;52.85;29.92;;;;;;;14.28;100.00;100068.28;5069727;28;20024;-69
2022/11/19 09:50:44;;;;;;;55.25;29.67;;;;;;;14.39;100.00;100060.63;5052247;28;20111;-69
2022/11/19 09:53:18;;;;;;;57.92;30.40;;;;;;;14.32;100.00;100051.03;5006634;28;20049;-69
2022/11/19 09:55:45;;;;;;;61.15;30.92;;;;;;;14.42;100.00;100049.41;5017852;28;20147;-70
2022/11/19 09:58:16;;;;;;;69.35;31.15;;;;;;;14.29;100.00;100009.44;5017090;28;20071;-69
2022/11/19 10:00:43;;;;;;;65.25;33.35;;;;;;;14.45;100.00;100029.56;5017582;28;20452;-69
2022/11/19 10:03:21;;;;;;;53.95;30.75;;;;;;;14.30;100.00;99999.06;5017383;28;20033;-70
2022/11/19 10:05:46;;;;;;;61.92;32.55;;;;;;;14.60;100.00;100041.03;5018267;28;20021;-69
2022/11/19 10:08:33;;;;;;;60.80;31.45;;;;;;;14.69;100.00;100036.88;5016670;28;20729;-70
2022/11/19 10:11:31;;;;;;;47.75;28.88;;;;;;;14.77;100.00;100034.34;5016815;28;20045;-69
2022/11/19 10:14:03;;;;;;;48.85;28.77;;;;;;;14.82;100.00;100031.81;4994247;28;20471;-69
2022/11/19 10:16:47;;;;;;;44.50;27.58;;;;;;;14.91;100.00;100031.94;4997511;28;20030;-69
2022/11/19 10:19:30;;;;;;;43.38;25.48;;;;;;;14.94;100.00;100036.28;4998319;28;20076;-69
2022/11/19 10:22:03;;;;;;;41.03;24.95;;;;;;;14.97;100.00;100026.81;5004290;28;20049;-69
2022/11/19 10:24:41;;;;;;;42.95;23.83;;;;;;;15.05;100.00;100021.69;5007799;28;20128;-69
2022/11/19 10:27:48;;;;;;;42.28;26.15;;;;;;;15.30;100.00;100012.44;5006439;28;20032;-69
2022/11/19 10:30:16;;;;;;;40.65;22.67;;;;;;;15.58;100.00;100017.91;4951888;28;20035;-69
2022/11/19 10:32:53;;;;;;;33.78;20.33;;;;;;;15.81;100.00;100022.44;4949271;29;20039;-70
2022/11/19 10:35:33;;;;;;;30.77;20.65;;;;;;;16.08;100.00;100027.00;4949528;29;20540;-69
2022/11/19 10:38:02;;;;;;;34.15;21.95;;;;;;;16.16;100.00;100027.06;4949089;29;20582;-69
2022/11/19 10:40:37;;;;;;;;;;;;;;;16.08;100.00;100018.34;4949773;29;20032;-69
2022/11/19 10:43:25;;;;;;;35.60;23.38;;;;;;;16.23;100.00;100026.25;4949504;29;19915;-69
2022/11/19 10:45:50;;;;;;;28.95;21.23;;;;;;;16.44;100.00;100012.47;4967597;28;20612;-69
2022/11/19 10:48:20;;;;;;;33.50;22.00;;;;;;;16.41;100.00;99986.44;4968319;28;20027;-69
2022/11/19 10:50:46;;;;;;;37.17;22.23;;;;;;;16.71;100.00;100010.91;4970116;28;20037;-69
2022/11/19 10:53:22;;;;;;;35.95;23.73;;;;;;;16.77;100.00;100010.91;4972499;28;20042;-69
2022/11/19 10:56:40;;;;;;;37.38;24.52;;;;;;;16.83;100.00;100017.88;4943685;29;20564;-69
2022/11/19 10:59:19;;;;;;;40.95;24.20;;;;;;;16.91;100.00;100021.44;4943528;29;20602;-69
2022/11/19 11:01:47;;;;;;;37.08;22.23;;;;;;;16.91;100.00;100021.44;4941816;29;20565;-70
2022/11/19 11:04:24;;;;;;;32.28;21.50;;;;;;;16.84;100.00;100021.38;4942360;29;20032;-69
2022/11/19 11:06:49;;;;;;;37.58;21.73;;;;;;;16.74;100.00;100013.50;5009375;28;20145;-70
2022/11/19 11:09:32;;;;;;;30.65;20.05;;;;;;;16.71;100.00;100008.28;4994590;28;20038;-69
2022/11/19 11:14:53;;;;;;;26.80;17.73;;;;;;;16.80;100.00;100002.25;5011875;28;20077;-70
2022/11/19 11:17:27;;;;;;;22.58;15.90;;;;;;;16.97;100.00;99992.78;4995681;28;20087;-70
2022/11/19 11:20:03;;;;;;;22.63;16.05;;;;;;;17.10;100.00;99984.97;5010994;28;20608;-70
2022/11/19 11:22:29;;;;;;;24.02;16.88;;;;;;;17.29;100.00;99994.56;4994214;28;20046;-69
2022/11/19 11:24:56;;;;;;;23.80;14.80;;;;;;;17.29;100.00;99986.72;5010716;28;20113;-68
2022/11/19 11:27:29;;;;;;;25.65;14.18;;;;;;;17.36;100.00;99982.41;5047311;28;20506;-69
2022/11/19 11:30:21;;;;;;;17.20;11.63;;;;;;;17.46;100.00;99992.00;5072604;28;20047;-69
2022/11/19 11:32:46;;;;;;;15.25;11.38;;;;;;;17.43;100.00;99975.47;5009402;28;20038;-69
2022/11/19 11:35:31;;;;;;;16.77;11.73;;;;;;;17.48;100.00;99975.47;4993791;28;20040;-69
2022/11/19 11:38:00;;;;;;;16.75;11.52;;;;;;;17.49;100.00;99983.28;5007718;28;20050;-69
2022/11/19 11:40:28;;;;;;;13.55;10.52;;;;;;;17.33;100.00;99951.09;5010405;28;20523;-70